UHPP 150230Z 34009MPS CAVOK 11/M01 Q1009 R34L/CLRD60 NOSIG RMK QFE753/1005
QNH:(hPa/inHg/mmHg)1009 / 29.8 / 757
QFE:(hPa/inHg/mmHg)1004 / 29.65 / 753
Temperature11
Dew Point-1
Visibility> 10000
WeatherCAVOK
Cloud Cover
Transition Height2400 m./8100 ft.
Transition LevelFL100
SQUAWK